sensor_id;sensor_type;location;lat;lon;timestamp;P1;durP1;ratioP1;P2;durP2;ratioP2
59024;SDS011;44806;48.008;13.666;2022-07-12T00:01:53;4.78;;;1.70;;
59024;SDS011;44806;48.008;13.666;2022-07-12T00:04:21;4.57;;;1.77;;
59024;SDS011;44806;48.008;13.666;2022-07-12T00:06:48;3.80;;;1.70;;
59024;SDS011;44806;48.008;13.666;2022-07-12T00:09:16;4.00;;;1.70;;
59024;SDS011;44806;48.008;13.666;2022-07-12T00:11:43;3.10;;;1.50;;
59024;SDS011;44806;48.008;13.666;2022-07-12T00:14:10;5.72;;;1.70;;
59024;SDS011;44806;48.008;13.666;2022-07-12T00:16:37;4.68;;;1.80;;
59024;SDS011;44806;48.008;13.666;2022-07-12T00:19:04;4.38;;;1.90;;
59024;SDS011;44806;48.008;13.666;2022-07-12T00:21:33;3.45;;;1.60;;
59024;SDS011;44806;48.008;13.666;2022-07-12T00:24:00;6.47;;;1.77;;
59024;SDS011;44806;48.008;13.666;2022-07-12T00:26:27;4.40;;;1.77;;
59024;SDS011;44806;48.008;13.666;2022-07-12T00:28:54;4.68;;;1.90;;
59024;SDS011;44806;48.008;13.666;2022-07-12T00:31:22;3.67;;;1.60;;
59024;SDS011;44806;48.008;13.666;2022-07-12T00:33:49;3.97;;;1.80;;
59024;SDS011;44806;48.008;13.666;2022-07-12T00:36:17;3.72;;;1.50;;
59024;SDS011;44806;48.008;13.666;2022-07-12T00:38:45;3.28;;;1.60;;
59024;SDS011;44806;48.008;13.666;2022-07-12T00:41:13;5.07;;;1.58;;
59024;SDS011;44806;48.008;13.666;2022-07-12T00:43:40;4.43;;;1.70;;
59024;SDS011;44806;48.008;13.666;2022-07-12T00:46:10;4.10;;;1.77;;
59024;SDS011;44806;48.008;13.666;2022-07-12T00:48:38;4.47;;;1.58;;
59024;SDS011;44806;48.008;13.666;2022-07-12T00:51:05;3.78;;;1.65;;
59024;SDS011;44806;48.008;13.666;2022-07-12T00:53:32;4.00;;;1.92;;
59024;SDS011;44806;48.008;13.666;2022-07-12T00:56:03;3.60;;;1.67;;
59024;SDS011;44806;48.008;13.666;2022-07-12T00:58:31;4.25;;;1.92;;
59024;SDS011;44806;48.008;13.666;2022-07-12T01:00:58;4.18;;;1.63;;
59024;SDS011;44806;48.008;13.666;2022-07-12T01:03:25;6.80;;;1.70;;
59024;SDS011;44806;48.008;13.666;2022-07-12T01:05:53;3.42;;;1.52;;
59024;SDS011;44806;48.008;13.666;2022-07-12T01:08:21;4.25;;;1.70;;
59024;SDS011;44806;48.008;13.666;2022-07-12T01:10:49;3.80;;;1.70;;
59024;SDS011;44806;48.008;13.666;2022-07-12T01:13:18;4.63;;;1.80;;
59024;SDS011;44806;48.008;13.666;2022-07-12T01:15:46;3.92;;;1.73;;
59024;SDS011;44806;48.008;13.666;2022-07-12T01:18:14;3.42;;;1.75;;
59024;SDS011;44806;48.008;13.666;2022-07-12T01:20:42;3.80;;;1.60;;
59024;SDS011;44806;48.008;13.666;2022-07-12T01:23:12;4.75;;;1.60;;
59024;SDS011;44806;48.008;13.666;2022-07-12T01:25:39;2.88;;;1.40;;
59024;SDS011;44806;48.008;13.666;2022-07-12T01:28:07;4.45;;;1.70;;
59024;SDS011;44806;48.008;13.666;2022-07-12T01:30:34;2.78;;;1.25;;
59024;SDS011;44806;48.008;13.666;2022-07-12T01:33:01;3.08;;;1.52;;
59024;SDS011;44806;48.008;13.666;2022-07-12T01:35:29;3.97;;;1.75;;
59024;SDS011;44806;48.008;13.666;2022-07-12T01:37:57;4.60;;;1.80;;
59024;SDS011;44806;48.008;13.666;2022-07-12T01:40:26;3.83;;;1.88;;
59024;SDS011;44806;48.008;13.666;2022-07-12T01:42:53;5.60;;;1.75;;
59024;SDS011;44806;48.008;13.666;2022-07-12T01:45:20;3.67;;;1.60;;
59024;SDS011;44806;48.008;13.666;2022-07-12T01:47:47;6.47;;;1.55;;
59024;SDS011;44806;48.008;13.666;2022-07-12T01:50:15;3.65;;;1.60;;
59024;SDS011;44806;48.008;13.666;2022-07-12T01:52:42;4.45;;;1.75;;
59024;SDS011;44806;48.008;13.666;2022-07-12T01:55:10;3.78;;;1.80;;
59024;SDS011;44806;48.008;13.666;2022-07-12T01:57:39;4.00;;;1.58;;
59024;SDS011;44806;48.008;13.666;2022-07-12T02:00:09;3.45;;;1.40;;
59024;SDS011;44806;48.008;13.666;2022-07-12T02:02:37;4.30;;;1.70;;
59024;SDS011;44806;48.008;13.666;2022-07-12T02:05:07;3.95;;;1.75;;
59024;SDS011;44806;48.008;13.666;2022-07-12T02:07:34;4.03;;;1.48;;
59024;SDS011;44806;48.008;13.666;2022-07-12T02:10:03;3.17;;;1.60;;
59024;SDS011;44806;48.008;13.666;2022-07-12T02:12:31;3.53;;;1.55;;
59024;SDS011;44806;48.008;13.666;2022-07-12T02:15:00;3.47;;;1.45;;
59024;SDS011;44806;48.008;13.666;2022-07-12T02:17:27;5.32;;;2.13;;
59024;SDS011;44806;48.008;13.666;2022-07-12T02:19:54;5.10;;;1.80;;
59024;SDS011;44806;48.008;13.666;2022-07-12T02:22:21;4.28;;;1.77;;
59024;SDS011;44806;48.008;13.666;2022-07-12T02:24:48;4.13;;;1.70;;
59024;SDS011;44806;48.008;13.666;2022-07-12T02:27:16;4.95;;;1.70;;
59024;SDS011;44806;48.008;13.666;2022-07-12T02:29:46;4.47;;;1.40;;
59024;SDS011;44806;48.008;13.666;2022-07-12T02:32:14;3.83;;;1.60;;
59024;SDS011;44806;48.008;13.666;2022-07-12T02:34:41;5.00;;;1.90;;
59024;SDS011;44806;48.008;13.666;2022-07-12T02:37:08;7.07;;;1.90;;
59024;SDS011;44806;48.008;13.666;2022-07-12T02:39:36;4.55;;;1.70;;
59024;SDS011;44806;48.008;13.666;2022-07-12T02:42:05;6.25;;;2.40;;
59024;SDS011;44806;48.008;13.666;2022-07-12T02:44:32;5.53;;;1.67;;
59024;SDS011;44806;48.008;13.666;2022-07-12T02:46:59;4.15;;;1.90;;
59024;SDS011;44806;48.008;13.666;2022-07-12T02:49:28;4.25;;;1.70;;
59024;SDS011;44806;48.008;13.666;2022-07-12T02:51:55;6.25;;;2.15;;
59024;SDS011;44806;48.008;13.666;2022-07-12T02:54:22;5.53;;;1.83;;
59024;SDS011;44806;48.008;13.666;2022-07-12T02:56:49;6.63;;;1.92;;
59024;SDS011;44806;48.008;13.666;2022-07-12T02:59:16;5.55;;;2.17;;
59024;SDS011;44806;48.008;13.666;2022-07-12T03:01:43;4.45;;;1.83;;
59024;SDS011;44806;48.008;13.666;2022-07-12T03:04:10;6.57;;;1.98;;
59024;SDS011;44806;48.008;13.666;2022-07-12T03:06:39;5.25;;;1.90;;
59024;SDS011;44806;48.008;13.666;2022-07-12T03:09:06;4.05;;;1.60;;
59024;SDS011;44806;48.008;13.666;2022-07-12T03:11:33;4.72;;;2.08;;
59024;SDS011;44806;48.008;13.666;2022-07-12T03:14:00;4.80;;;2.05;;
59024;SDS011;44806;48.008;13.666;2022-07-12T03:16:27;5.25;;;1.85;;
59024;SDS011;44806;48.008;13.666;2022-07-12T03:18:54;4.90;;;1.90;;
59024;SDS011;44806;48.008;13.666;2022-07-12T03:21:21;5.45;;;1.92;;
59024;SDS011;44806;48.008;13.666;2022-07-12T03:23:50;4.90;;;2.13;;
59024;SDS011;44806;48.008;13.666;2022-07-12T03:26:17;5.53;;;2.20;;
59024;SDS011;44806;48.008;13.666;2022-07-12T03:28:44;5.45;;;1.95;;
59024;SDS011;44806;48.008;13.666;2022-07-12T03:31:11;5.93;;;2.00;;
59024;SDS011;44806;48.008;13.666;2022-07-12T03:33:38;4.40;;;2.10;;
59024;SDS011;44806;48.008;13.666;2022-07-12T03:36:06;4.70;;;1.77;;
59024;SDS011;44806;48.008;13.666;2022-07-12T03:38:34;4.82;;;2.00;;
59024;SDS011;44806;48.008;13.666;2022-07-12T03:41:03;4.78;;;2.15;;
59024;SDS011;44806;48.008;13.666;2022-07-12T03:43:30;6.15;;;2.13;;
59024;SDS011;44806;48.008;13.666;2022-07-12T03:45:58;5.00;;;2.20;;
59024;SDS011;44806;48.008;13.666;2022-07-12T03:48:25;5.07;;;2.28;;
59024;SDS011;44806;48.008;13.666;2022-07-12T03:50:52;6.88;;;2.20;;
59024;SDS011;44806;48.008;13.666;2022-07-12T03:53:19;6.70;;;2.40;;
59024;SDS011;44806;48.008;13.666;2022-07-12T03:55:46;4.45;;;2.00;;
59024;SDS011;44806;48.008;13.666;2022-07-12T03:58:14;8.32;;;2.15;;
59024;SDS011;44806;48.008;13.666;2022-07-12T04:00:42;6.40;;;2.20;;
59024;SDS011;44806;48.008;13.666;2022-07-12T04:03:09;6.43;;;2.05;;
59024;SDS011;44806;48.008;13.666;2022-07-12T04:05:36;7.22;;;2.40;;
59024;SDS011;44806;48.008;13.666;2022-07-12T04:08:04;7.07;;;2.50;;
59024;SDS011;44806;48.008;13.666;2022-07-12T04:10:31;4.97;;;2.30;;
59024;SDS011;44806;48.008;13.666;2022-07-12T04:12:58;4.93;;;2.30;;
59024;SDS011;44806;48.008;13.666;2022-07-12T04:15:27;4.88;;;1.73;;
59024;SDS011;44806;48.008;13.666;2022-07-12T04:17:54;5.18;;;2.35;;
59024;SDS011;44806;48.008;13.666;2022-07-12T04:20:21;5.50;;;2.63;;
59024;SDS011;44806;48.008;13.666;2022-07-12T04:22:48;4.57;;;2.30;;
59024;SDS011;44806;48.008;13.666;2022-07-12T04:25:15;6.20;;;2.25;;
59024;SDS011;44806;48.008;13.666;2022-07-12T04:27:42;4.75;;;2.25;;
59024;SDS011;44806;48.008;13.666;2022-07-12T04:30:10;5.40;;;2.38;;
59024;SDS011;44806;48.008;13.666;2022-07-12T04:32:41;4.65;;;2.20;;
59024;SDS011;44806;48.008;13.666;2022-07-12T04:35:09;5.35;;;2.17;;
59024;SDS011;44806;48.008;13.666;2022-07-12T04:37:36;6.72;;;2.40;;
59024;SDS011;44806;48.008;13.666;2022-07-12T04:40:03;5.70;;;2.42;;
59024;SDS011;44806;48.008;13.666;2022-07-12T04:42:31;5.32;;;2.28;;
59024;SDS011;44806;48.008;13.666;2022-07-12T04:44:58;5.03;;;2.10;;
59024;SDS011;44806;48.008;13.666;2022-07-12T04:47:26;6.28;;;2.10;;
59024;SDS011;44806;48.008;13.666;2022-07-12T04:49:54;4.85;;;2.17;;
59024;SDS011;44806;48.008;13.666;2022-07-12T04:52:21;5.13;;;2.00;;
59024;SDS011;44806;48.008;13.666;2022-07-12T04:54:49;5.78;;;2.10;;
59024;SDS011;44806;48.008;13.666;2022-07-12T04:57:16;5.65;;;2.25;;
59024;SDS011;44806;48.008;13.666;2022-07-12T04:59:43;5.85;;;2.33;;
59024;SDS011;44806;48.008;13.666;2022-07-12T05:02:11;4.53;;;2.15;;
59024;SDS011;44806;48.008;13.666;2022-07-12T05:04:38;4.53;;;2.00;;
59024;SDS011;44806;48.008;13.666;2022-07-12T05:07:06;5.45;;;2.05;;
59024;SDS011;44806;48.008;13.666;2022-07-12T05:09:34;4.97;;;1.70;;
59024;SDS011;44806;48.008;13.666;2022-07-12T05:12:01;4.57;;;2.08;;
59024;SDS011;44806;48.008;13.666;2022-07-12T05:14:28;5.18;;;1.90;;
59024;SDS011;44806;48.008;13.666;2022-07-12T05:16:56;4.30;;;1.75;;
59024;SDS011;44806;48.008;13.666;2022-07-12T05:19:23;3.40;;;1.70;;
59024;SDS011;44806;48.008;13.666;2022-07-12T05:21:50;3.55;;;1.58;;
59024;SDS011;44806;48.008;13.666;2022-07-12T05:24:19;3.95;;;1.88;;
59024;SDS011;44806;48.008;13.666;2022-07-12T05:26:46;4.07;;;1.90;;
59024;SDS011;44806;48.008;13.666;2022-07-12T05:29:13;3.63;;;1.70;;
59024;SDS011;44806;48.008;13.666;2022-07-12T05:31:41;4.45;;;1.52;;
59024;SDS011;44806;48.008;13.666;2022-07-12T05:34:08;4.28;;;1.90;;
59024;SDS011;44806;48.008;13.666;2022-07-12T05:36:35;3.45;;;1.70;;
59024;SDS011;44806;48.008;13.666;2022-07-12T05:39:03;5.15;;;2.10;;
59024;SDS011;44806;48.008;13.666;2022-07-12T05:41:32;4.70;;;1.90;;
59024;SDS011;44806;48.008;13.666;2022-07-12T05:43:59;4.40;;;1.90;;
59024;SDS011;44806;48.008;13.666;2022-07-12T05:46:26;4.95;;;1.85;;
59024;SDS011;44806;48.008;13.666;2022-07-12T05:48:53;3.60;;;1.58;;
59024;SDS011;44806;48.008;13.666;2022-07-12T05:51:21;4.00;;;1.63;;
59024;SDS011;44806;48.008;13.666;2022-07-12T05:54:05;4.18;;;1.92;;
59024;SDS011;44806;48.008;13.666;2022-07-12T05:56:34;6.57;;;2.00;;
59024;SDS011;44806;48.008;13.666;2022-07-12T05:59:02;4.90;;;2.15;;
59024;SDS011;44806;48.008;13.666;2022-07-12T06:01:29;4.30;;;1.73;;
59024;SDS011;44806;48.008;13.666;2022-07-12T06:03:56;5.93;;;1.60;;
59024;SDS011;44806;48.008;13.666;2022-07-12T06:06:23;4.07;;;1.88;;
59024;SDS011;44806;48.008;13.666;2022-07-12T06:08:50;4.63;;;1.50;;
59024;SDS011;44806;48.008;13.666;2022-07-12T06:11:18;4.70;;;1.73;;
59024;SDS011;44806;48.008;13.666;2022-07-12T06:13:47;5.20;;;1.70;;
59024;SDS011;44806;48.008;13.666;2022-07-12T06:16:15;4.45;;;1.50;;
59024;SDS011;44806;48.008;13.666;2022-07-12T06:18:43;4.80;;;1.52;;
59024;SDS011;44806;48.008;13.666;2022-07-12T06:21:10;5.60;;;1.35;;
59024;SDS011;44806;48.008;13.666;2022-07-12T06:23:39;4.05;;;1.48;;
59024;SDS011;44806;48.008;13.666;2022-07-12T06:26:06;3.28;;;1.20;;
59024;SDS011;44806;48.008;13.666;2022-07-12T06:28:34;3.60;;;1.33;;
59024;SDS011;44806;48.008;13.666;2022-07-12T06:31:05;3.97;;;1.50;;
59024;SDS011;44806;48.008;13.666;2022-07-12T06:33:33;2.97;;;1.30;;
59024;SDS011;44806;48.008;13.666;2022-07-12T06:36:00;3.58;;;1.20;;
59024;SDS011;44806;48.008;13.666;2022-07-12T06:38:28;2.90;;;1.15;;
59024;SDS011;44806;48.008;13.666;2022-07-12T06:40:55;3.53;;;1.33;;
59024;SDS011;44806;48.008;13.666;2022-07-12T06:43:22;5.10;;;1.30;;
59024;SDS011;44806;48.008;13.666;2022-07-12T06:45:49;5.10;;;1.33;;
59024;SDS011;44806;48.008;13.666;2022-07-12T06:48:18;3.20;;;1.42;;
59024;SDS011;44806;48.008;13.666;2022-07-12T06:50:46;4.55;;;1.20;;
59024;SDS011;44806;48.008;13.666;2022-07-12T06:53:13;3.80;;;1.45;;
59024;SDS011;44806;48.008;13.666;2022-07-12T06:55:44;4.53;;;1.17;;
59024;SDS011;44806;48.008;13.666;2022-07-12T06:58:11;3.70;;;1.58;;
59024;SDS011;44806;48.008;13.666;2022-07-12T07:00:39;3.25;;;1.20;;
59024;SDS011;44806;48.008;13.666;2022-07-12T07:03:07;6.40;;;2.97;;
59024;SDS011;44806;48.008;13.666;2022-07-12T07:05:37;3.80;;;1.10;;
59024;SDS011;44806;48.008;13.666;2022-07-12T07:08:04;3.55;;;1.20;;
59024;SDS011;44806;48.008;13.666;2022-07-12T07:10:32;3.05;;;1.17;;
59024;SDS011;44806;48.008;13.666;2022-07-12T07:12:59;2.60;;;1.10;;
59024;SDS011;44806;48.008;13.666;2022-07-12T07:15:26;2.17;;;1.02;;
59024;SDS011;44806;48.008;13.666;2022-07-12T07:17:53;2.67;;;1.10;;
59024;SDS011;44806;48.008;13.666;2022-07-12T07:20:22;1.95;;;0.90;;
59024;SDS011;44806;48.008;13.666;2022-07-12T07:22:50;2.72;;;0.90;;
59024;SDS011;44806;48.008;13.666;2022-07-12T07:25:17;3.58;;;1.00;;
59024;SDS011;44806;48.008;13.666;2022-07-12T07:27:45;1.92;;;0.65;;
59024;SDS011;44806;48.008;13.666;2022-07-12T07:30:12;2.55;;;1.00;;
59024;SDS011;44806;48.008;13.666;2022-07-12T07:32:57;1.58;;;0.80;;
59024;SDS011;44806;48.008;13.666;2022-07-12T07:35:24;2.60;;;0.95;;
59024;SDS011;44806;48.008;13.666;2022-07-12T07:37:54;1.80;;;0.80;;
59024;SDS011;44806;48.008;13.666;2022-07-12T07:40:22;2.10;;;1.05;;
59024;SDS011;44806;48.008;13.666;2022-07-12T07:42:49;2.42;;;0.98;;
59024;SDS011;44806;48.008;13.666;2022-07-12T07:45:16;2.17;;;0.85;;
59024;SDS011;44806;48.008;13.666;2022-07-12T07:47:44;2.70;;;0.95;;
59024;SDS011;44806;48.008;13.666;2022-07-12T07:50:13;2.50;;;1.15;;
59024;SDS011;44806;48.008;13.666;2022-07-12T07:52:41;2.58;;;1.00;;
59024;SDS011;44806;48.008;13.666;2022-07-12T07:55:09;3.88;;;1.20;;
59024;SDS011;44806;48.008;13.666;2022-07-12T07:57:37;4.28;;;1.02;;
59024;SDS011;44806;48.008;13.666;2022-07-12T08:00:04;4.65;;;1.40;;
59024;SDS011;44806;48.008;13.666;2022-07-12T08:02:32;2.88;;;1.15;;
59024;SDS011;44806;48.008;13.666;2022-07-12T08:04:59;2.55;;;1.08;;
59024;SDS011;44806;48.008;13.666;2022-07-12T08:07:26;3.00;;;0.90;;
59024;SDS011;44806;48.008;13.666;2022-07-12T08:09:54;2.97;;;0.90;;
59024;SDS011;44806;48.008;13.666;2022-07-12T08:12:22;1.95;;;0.90;;
59024;SDS011;44806;48.008;13.666;2022-07-12T08:14:50;2.30;;;1.00;;
59024;SDS011;44806;48.008;13.666;2022-07-12T08:17:17;2.00;;;0.80;;
59024;SDS011;44806;48.008;13.666;2022-07-12T08:19:44;2.55;;;0.90;;
59024;SDS011;44806;48.008;13.666;2022-07-12T08:22:11;2.15;;;0.80;;
59024;SDS011;44806;48.008;13.666;2022-07-12T08:24:39;3.00;;;0.93;;
59024;SDS011;44806;48.008;13.666;2022-07-12T08:27:09;1.88;;;0.70;;
59024;SDS011;44806;48.008;13.666;2022-07-12T08:29:38;1.38;;;0.70;;
59024;SDS011;44806;48.008;13.666;2022-07-12T08:32:05;2.13;;;1.08;;
59024;SDS011;44806;48.008;13.666;2022-07-12T08:34:34;2.83;;;1.10;;
59024;SDS011;44806;48.008;13.666;2022-07-12T08:37:01;1.52;;;0.77;;
59024;SDS011;44806;48.008;13.666;2022-07-12T08:39:29;1.80;;;0.80;;
59024;SDS011;44806;48.008;13.666;2022-07-12T08:41:56;1.60;;;0.98;;
59024;SDS011;44806;48.008;13.666;2022-07-12T08:44:24;1.73;;;0.80;;
59024;SDS011;44806;48.008;13.666;2022-07-12T08:46:53;2.10;;;0.88;;
59024;SDS011;44806;48.008;13.666;2022-07-12T08:49:20;1.33;;;0.73;;
59024;SDS011;44806;48.008;13.666;2022-07-12T08:51:47;1.40;;;0.70;;
59024;SDS011;44806;48.008;13.666;2022-07-12T08:54:15;2.28;;;0.90;;
59024;SDS011;44806;48.008;13.666;2022-07-12T08:56:44;2.08;;;0.90;;
59024;SDS011;44806;48.008;13.666;2022-07-12T08:59:12;2.35;;;0.95;;
59024;SDS011;44806;48.008;13.666;2022-07-12T09:01:45;1.70;;;0.80;;
59024;SDS011;44806;48.008;13.666;2022-07-12T09:04:17;0.90;;;0.70;;
59024;SDS011;44806;48.008;13.666;2022-07-12T09:06:45;1.75;;;0.90;;
59024;SDS011;44806;48.008;13.666;2022-07-12T09:09:24;2.83;;;0.90;;
59024;SDS011;44806;48.008;13.666;2022-07-12T09:11:53;1.67;;;0.80;;
59024;SDS011;44806;48.008;13.666;2022-07-12T09:14:21;1.98;;;0.80;;
59024;SDS011;44806;48.008;13.666;2022-07-12T09:16:58;2.55;;;0.93;;
59024;SDS011;44806;48.008;13.666;2022-07-12T09:19:29;1.73;;;0.90;;
59024;SDS011;44806;48.008;13.666;2022-07-12T09:21:57;1.85;;;0.80;;
59024;SDS011;44806;48.008;13.666;2022-07-12T09:24:25;1.60;;;0.60;;
59024;SDS011;44806;48.008;13.666;2022-07-12T09:26:53;1.25;;;0.70;;
59024;SDS011;44806;48.008;13.666;2022-07-12T09:29:24;1.70;;;0.80;;
59024;SDS011;44806;48.008;13.666;2022-07-12T09:31:51;1.42;;;0.70;;
59024;SDS011;44806;48.008;13.666;2022-07-12T09:34:38;1.52;;;0.70;;
59024;SDS011;44806;48.008;13.666;2022-07-12T09:37:23;1.35;;;0.60;;
59024;SDS011;44806;48.008;13.666;2022-07-12T09:39:51;3.13;;;0.80;;
59024;SDS011;44806;48.008;13.666;2022-07-12T09:42:18;1.35;;;0.63;;
59024;SDS011;44806;48.008;13.666;2022-07-12T09:44:47;1.58;;;0.80;;
59024;SDS011;44806;48.008;13.666;2022-07-12T09:47:15;1.85;;;0.73;;
59024;SDS011;44806;48.008;13.666;2022-07-12T09:49:44;1.92;;;0.80;;
59024;SDS011;44806;48.008;13.666;2022-07-12T09:52:14;5.15;;;0.80;;
59024;SDS011;44806;48.008;13.666;2022-07-12T09:54:49;2.15;;;0.88;;
59024;SDS011;44806;48.008;13.666;2022-07-12T09:57:20;3.42;;;1.20;;
59024;SDS011;44806;48.008;13.666;2022-07-12T09:59:49;1.40;;;0.70;;
59024;SDS011;44806;48.008;13.666;2022-07-12T10:02:17;2.47;;;0.70;;
59024;SDS011;44806;48.008;13.666;2022-07-12T10:04:46;1.73;;;0.82;;
59024;SDS011;44806;48.008;13.666;2022-07-12T10:07:14;1.25;;;0.70;;
59024;SDS011;44806;48.008;13.666;2022-07-12T10:09:42;1.60;;;0.82;;
59024;SDS011;44806;48.008;13.666;2022-07-12T10:12:10;1.95;;;0.80;;
59024;SDS011;44806;48.008;13.666;2022-07-12T10:14:39;1.48;;;0.73;;
59024;SDS011;44806;48.008;13.666;2022-07-12T10:17:08;1.88;;;0.70;;
59024;SDS011;44806;48.008;13.666;2022-07-12T10:19:36;1.65;;;0.80;;
59024;SDS011;44806;48.008;13.666;2022-07-12T10:22:05;2.53;;;0.80;;
59024;SDS011;44806;48.008;13.666;2022-07-12T10:24:47;2.22;;;1.02;;
59024;SDS011;44806;48.008;13.666;2022-07-12T10:30:16;1.88;;;0.80;;
59024;SDS011;44806;48.008;13.666;2022-07-12T10:32:48;1.63;;;0.80;;
59024;SDS011;44806;48.008;13.666;2022-07-12T10:35:19;1.70;;;0.80;;
59024;SDS011;44806;48.008;13.666;2022-07-12T10:40:47;3.17;;;1.05;;
59024;SDS011;44806;48.008;13.666;2022-07-12T10:43:19;2.35;;;0.82;;
59024;SDS011;44806;48.008;13.666;2022-07-12T10:46:18;2.22;;;0.90;;
59024;SDS011;44806;48.008;13.666;2022-07-12T10:48:50;2.28;;;0.70;;
59024;SDS011;44806;48.008;13.666;2022-07-12T10:51:18;1.80;;;0.70;;
59024;SDS011;44806;48.008;13.666;2022-07-12T10:53:47;1.58;;;0.70;;
59024;SDS011;44806;48.008;13.666;2022-07-12T10:56:19;2.17;;;0.80;;
59024;SDS011;44806;48.008;13.666;2022-07-12T10:58:48;1.73;;;0.82;;
59024;SDS011;44806;48.008;13.666;2022-07-12T11:01:18;2.70;;;0.70;;
59024;SDS011;44806;48.008;13.666;2022-07-12T11:03:47;2.90;;;0.90;;
59024;SDS011;44806;48.008;13.666;2022-07-12T11:06:16;2.80;;;0.90;;
59024;SDS011;44806;48.008;13.666;2022-07-12T11:11:34;1.67;;;0.80;;
59024;SDS011;44806;48.008;13.666;2022-07-12T11:14:06;1.52;;;0.88;;
59024;SDS011;44806;48.008;13.666;2022-07-12T11:16:33;1.52;;;0.70;;
59024;SDS011;44806;48.008;13.666;2022-07-12T11:19:01;1.98;;;0.90;;
59024;SDS011;44806;48.008;13.666;2022-07-12T11:21:28;4.15;;;0.77;;
59024;SDS011;44806;48.008;13.666;2022-07-12T11:23:55;1.80;;;0.73;;
59024;SDS011;44806;48.008;13.666;2022-07-12T11:26:25;2.83;;;0.80;;
59024;SDS011;44806;48.008;13.666;2022-07-12T11:28:57;1.65;;;0.80;;
59024;SDS011;44806;48.008;13.666;2022-07-12T11:31:25;2.00;;;0.90;;
59024;SDS011;44806;48.008;13.666;2022-07-12T11:33:52;3.00;;;0.82;;
59024;SDS011;44806;48.008;13.666;2022-07-12T11:36:19;2.05;;;0.70;;
59024;SDS011;44806;48.008;13.666;2022-07-12T11:38:46;1.90;;;0.80;;
59024;SDS011;44806;48.008;13.666;2022-07-12T11:41:14;3.25;;;0.93;;
59024;SDS011;44806;48.008;13.666;2022-07-12T11:43:43;2.15;;;0.85;;
59024;SDS011;44806;48.008;13.666;2022-07-12T11:46:11;3.90;;;1.00;;
59024;SDS011;44806;48.008;13.666;2022-07-12T11:48:39;2.95;;;0.95;;
59024;SDS011;44806;48.008;13.666;2022-07-12T11:51:09;1.83;;;0.73;;
59024;SDS011;44806;48.008;13.666;2022-07-12T11:53:37;2.58;;;0.95;;
59024;SDS011;44806;48.008;13.666;2022-07-12T11:56:06;2.75;;;0.98;;
59024;SDS011;44806;48.008;13.666;2022-07-12T11:58:34;2.78;;;1.17;;
59024;SDS011;44806;48.008;13.666;2022-07-12T12:01:05;2.35;;;0.82;;
59024;SDS011;44806;48.008;13.666;2022-07-12T12:03:41;1.85;;;0.93;;
59024;SDS011;44806;48.008;13.666;2022-07-12T12:06:10;1.63;;;0.80;;
59024;SDS011;44806;48.008;13.666;2022-07-12T12:08:38;2.03;;;0.82;;
59024;SDS011;44806;48.008;13.666;2022-07-12T12:11:05;3.28;;;0.90;;
59024;SDS011;44806;48.008;13.666;2022-07-12T12:13:32;2.97;;;0.70;;
59024;SDS011;44806;48.008;13.666;2022-07-12T12:16:00;1.40;;;0.70;;
59024;SDS011;44806;48.008;13.666;2022-07-12T12:18:32;1.98;;;0.70;;
59024;SDS011;44806;48.008;13.666;2022-07-12T12:21:01;1.23;;;0.77;;
59024;SDS011;44806;48.008;13.666;2022-07-12T12:23:30;3.83;;;1.00;;
59024;SDS011;44806;48.008;13.666;2022-07-12T12:26:11;3.00;;;1.10;;
59024;SDS011;44806;48.008;13.666;2022-07-12T12:28:40;2.67;;;1.02;;
59024;SDS011;44806;48.008;13.666;2022-07-12T12:31:08;2.63;;;0.80;;
59024;SDS011;44806;48.008;13.666;2022-07-12T12:33:38;2.08;;;0.90;;
59024;SDS011;44806;48.008;13.666;2022-07-12T12:36:19;3.83;;;1.00;;
59024;SDS011;44806;48.008;13.666;2022-07-12T12:38:48;1.60;;;0.80;;
59024;SDS011;44806;48.008;13.666;2022-07-12T12:41:16;2.10;;;1.00;;
59024;SDS011;44806;48.008;13.666;2022-07-12T12:43:47;3.40;;;1.00;;
59024;SDS011;44806;48.008;13.666;2022-07-12T12:46:15;1.73;;;0.60;;
59024;SDS011;44806;48.008;13.666;2022-07-12T12:48:47;2.58;;;0.60;;
59024;SDS011;44806;48.008;13.666;2022-07-12T12:51:15;1.75;;;0.80;;
59024;SDS011;44806;48.008;13.666;2022-07-12T12:53:42;1.63;;;0.60;;
59024;SDS011;44806;48.008;13.666;2022-07-12T12:56:10;3.97;;;0.70;;
59024;SDS011;44806;48.008;13.666;2022-07-12T12:58:38;1.30;;;0.50;;
59024;SDS011;44806;48.008;13.666;2022-07-12T13:01:06;0.95;;;0.50;;
59024;SDS011;44806;48.008;13.666;2022-07-12T13:03:34;1.40;;;0.60;;
59024;SDS011;44806;48.008;13.666;2022-07-12T13:06:02;1.05;;;0.50;;
59024;SDS011;44806;48.008;13.666;2022-07-12T13:08:33;2.08;;;0.47;;
59024;SDS011;44806;48.008;13.666;2022-07-12T13:11:00;1.05;;;0.40;;
59024;SDS011;44806;48.008;13.666;2022-07-12T13:13:47;1.25;;;0.50;;
59024;SDS011;44806;48.008;13.666;2022-07-12T13:16:14;1.02;;;0.30;;
59024;SDS011;44806;48.008;13.666;2022-07-12T13:18:41;1.23;;;0.55;;
59024;SDS011;44806;48.008;13.666;2022-07-12T13:21:10;1.33;;;0.40;;
59024;SDS011;44806;48.008;13.666;2022-07-12T13:23:37;0.55;;;0.30;;
59024;SDS011;44806;48.008;13.666;2022-07-12T13:26:04;1.20;;;0.40;;
59024;SDS011;44806;48.008;13.666;2022-07-12T13:28:32;0.80;;;0.45;;
59024;SDS011;44806;48.008;13.666;2022-07-12T13:30:59;2.38;;;0.50;;
59024;SDS011;44806;48.008;13.666;2022-07-12T13:33:26;2.22;;;0.50;;
59024;SDS011;44806;48.008;13.666;2022-07-12T13:35:53;1.42;;;0.63;;
59024;SDS011;44806;48.008;13.666;2022-07-12T13:38:22;0.93;;;0.47;;
59024;SDS011;44806;48.008;13.666;2022-07-12T13:40:51;1.25;;;0.50;;
59024;SDS011;44806;48.008;13.666;2022-07-12T13:43:18;1.48;;;0.50;;
59024;SDS011;44806;48.008;13.666;2022-07-12T13:45:45;1.48;;;0.40;;
59024;SDS011;44806;48.008;13.666;2022-07-12T13:48:16;1.08;;;0.50;;
59024;SDS011;44806;48.008;13.666;2022-07-12T13:50:43;1.40;;;0.40;;
59024;SDS011;44806;48.008;13.666;2022-07-12T13:53:12;4.00;;;0.95;;
59024;SDS011;44806;48.008;13.666;2022-07-12T13:55:42;3.45;;;0.40;;
59024;SDS011;44806;48.008;13.666;2022-07-12T13:58:11;2.47;;;0.60;;
59024;SDS011;44806;48.008;13.666;2022-07-12T14:00:39;1.08;;;0.50;;
59024;SDS011;44806;48.008;13.666;2022-07-12T14:03:08;2.17;;;0.35;;
59024;SDS011;44806;48.008;13.666;2022-07-12T14:05:35;1.60;;;0.50;;
59024;SDS011;44806;48.008;13.666;2022-07-12T14:08:03;1.23;;;0.50;;
59024;SDS011;44806;48.008;13.666;2022-07-12T14:10:30;1.02;;;0.40;;
59024;SDS011;44806;48.008;13.666;2022-07-12T14:13:00;1.08;;;0.50;;
59024;SDS011;44806;48.008;13.666;2022-07-12T14:15:27;1.02;;;0.40;;
59024;SDS011;44806;48.008;13.666;2022-07-12T14:18:03;1.80;;;0.50;;
59024;SDS011;44806;48.008;13.666;2022-07-12T14:20:31;2.50;;;0.60;;
59024;SDS011;44806;48.008;13.666;2022-07-12T14:23:00;2.13;;;0.77;;
59024;SDS011;44806;48.008;13.666;2022-07-12T14:25:31;0.82;;;0.40;;
59024;SDS011;44806;48.008;13.666;2022-07-12T14:28:00;0.82;;;0.40;;
59024;SDS011;44806;48.008;13.666;2022-07-12T14:30:28;1.95;;;0.50;;
59024;SDS011;44806;48.008;13.666;2022-07-12T14:32:55;2.28;;;0.50;;
59024;SDS011;44806;48.008;13.666;2022-07-12T14:35:22;1.95;;;0.43;;
59024;SDS011;44806;48.008;13.666;2022-07-12T14:37:50;1.05;;;0.40;;
59024;SDS011;44806;48.008;13.666;2022-07-12T14:40:17;0.60;;;0.40;;
59024;SDS011;44806;48.008;13.666;2022-07-12T14:42:44;1.20;;;0.52;;
59024;SDS011;44806;48.008;13.666;2022-07-12T14:45:13;0.63;;;0.40;;
59024;SDS011;44806;48.008;13.666;2022-07-12T14:47:40;0.60;;;0.40;;
59024;SDS011;44806;48.008;13.666;2022-07-12T14:50:08;0.75;;;0.40;;